Aviation Digital Data Service (ADDS)

Output produced by TAFs form (0027 UTC 27 May 2017)
found at http://www.aviationweather.gov/adds/tafs/
 
METAR text: RJTE 262145Z 17007KT 130V220 9999 SCT010 SCT020 21/19 Q1006 RMK 4ST010 3CU020 A2971
Conditions at: RJTE (TATEYAMA (JMSDF), JP) observed 2145 UTC 26 May 2017
Temperature: 21.0°C (70°F)
Dewpoint: 19.0°C (66°F) [RH = 88%]
Pressure (altimeter): 29.70 inches Hg (1006.0 mb)
Winds: from the S (170 degrees) at 8 MPH (7 knots; 3.6 m/s)
Visibility: 6 or more miles (10+ km)
Ceiling: at least 12,000 feet AGL
Clouds: scattered clouds at 1000 feet AGL
scattered clouds at 2000 feet AGL
Weather: no significant weather observed at this time